Cadwell, Georgia
Current Conditions -  °F | °C
As of 11:35 AM on Wednesday 26 Nov 2014 (Local Time) from KEZM Reporting Station
Clear Clear  
Wind Chill: 56°   Ceiling: Unl
Heat Index: 56°   Visibility: 10mi
Dew Point: 44°   Wind: 9mph
Humidity: 64%   Direction: 280°W
Pressure: 30.14"   Gusts: NA
Location:  32.34°N, 83.04°W
Report Text: KEZM 261635Z AUTO 28008KT 10SM CLR 13/07 A3014 RMK AO2 T01340067
Loading
Personal Weather Stations






























Interactive Weather Map New forecast layout! Learn more

10-Day Weather Forecast

Advertisements
Track Severe Weather on mobile